sensor_id;sensor_type;location;lat;lon;timestamp;temperature;humidity
8736;DHT22;4404;49.308;12.178;2022-12-29T00:05:59;6.10;99.90
8736;DHT22;4404;49.308;12.178;2022-12-29T00:12:02;6.10;99.90
8736;DHT22;4404;49.308;12.178;2022-12-29T00:18:05;6.10;99.90
8736;DHT22;4404;49.308;12.178;2022-12-29T00:24:16;6.10;99.90
8736;DHT22;4404;49.308;12.178;2022-12-29T00:30:37;6.10;99.90
8736;DHT22;4404;49.308;12.178;2022-12-29T00:36:57;6.10;99.90
8736;DHT22;4404;49.308;12.178;2022-12-29T00:43:00;6.10;99.90
8736;DHT22;4404;49.308;12.178;2022-12-29T00:49:20;6.10;99.90
8736;DHT22;4404;49.308;12.178;2022-12-29T00:55:36;6.10;99.90
8736;DHT22;4404;49.308;12.178;2022-12-29T01:01:40;6.10;99.90
8736;DHT22;4404;49.308;12.178;2022-12-29T01:07:42;6.10;99.90
8736;DHT22;4404;49.308;12.178;2022-12-29T01:13:44;6.10;99.90
8736;DHT22;4404;49.308;12.178;2022-12-29T01:19:48;6.10;99.90
8736;DHT22;4404;49.308;12.178;2022-12-29T01:25:50;6.10;99.90
8736;DHT22;4404;49.308;12.178;2022-12-29T01:31:52;6.10;99.90
8736;DHT22;4404;49.308;12.178;2022-12-29T01:37:55;6.10;99.90
8736;DHT22;4404;49.308;12.178;2022-12-29T01:43:59;6.10;99.90
8736;DHT22;4404;49.308;12.178;2022-12-29T01:50:05;6.10;99.90
8736;DHT22;4404;49.308;12.178;2022-12-29T01:56:13;6.20;99.90
8736;DHT22;4404;49.308;12.178;2022-12-29T02:02:17;6.10;99.90
8736;DHT22;4404;49.308;12.178;2022-12-29T02:08:20;6.20;99.90
8736;DHT22;4404;49.308;12.178;2022-12-29T02:14:25;6.10;99.90
8736;DHT22;4404;49.308;12.178;2022-12-29T02:27:29;6.00;99.90
8736;DHT22;4404;49.308;12.178;2022-12-29T02:33:48;5.90;99.90
8736;DHT22;4404;49.308;12.178;2022-12-29T02:40:03;6.00;99.90
8736;DHT22;4404;49.308;12.178;2022-12-29T02:46:17;6.00;99.90
8736;DHT22;4404;49.308;12.178;2022-12-29T02:52:30;6.00;99.90
8736;DHT22;4404;49.308;12.178;2022-12-29T02:58:34;6.10;99.90
8736;DHT22;4404;49.308;12.178;2022-12-29T03:04:42;6.10;99.90
8736;DHT22;4404;49.308;12.178;2022-12-29T03:11:05;6.10;99.90
8736;DHT22;4404;49.308;12.178;2022-12-29T03:17:33;6.10;99.90
8736;DHT22;4404;49.308;12.178;2022-12-29T03:23:41;6.10;99.90
8736;DHT22;4404;49.308;12.178;2022-12-29T03:29:47;6.10;99.90
8736;DHT22;4404;49.308;12.178;2022-12-29T03:36:00;6.10;99.90
8736;DHT22;4404;49.308;12.178;2022-12-29T03:42:06;6.20;99.90
8736;DHT22;4404;49.308;12.178;2022-12-29T03:48:12;6.20;99.90
8736;DHT22;4404;49.308;12.178;2022-12-29T03:54:14;6.20;99.90
8736;DHT22;4404;49.308;12.178;2022-12-29T04:00:16;6.30;99.90
8736;DHT22;4404;49.308;12.178;2022-12-29T04:06:20;6.30;99.90
8736;DHT22;4404;49.308;12.178;2022-12-29T04:12:22;6.30;99.90
8736;DHT22;4404;49.308;12.178;2022-12-29T04:18:24;6.30;99.90
8736;DHT22;4404;49.308;12.178;2022-12-29T04:24:27;6.40;99.90
8736;DHT22;4404;49.308;12.178;2022-12-29T04:30:29;6.40;99.90
8736;DHT22;4404;49.308;12.178;2022-12-29T04:36:31;6.40;99.90
8736;DHT22;4404;49.308;12.178;2022-12-29T04:42:35;6.50;99.90
8736;DHT22;4404;49.308;12.178;2022-12-29T04:48:37;6.50;99.90
8736;DHT22;4404;49.308;12.178;2022-12-29T04:54:39;6.50;99.90
8736;DHT22;4404;49.308;12.178;2022-12-29T05:00:42;6.50;99.90
8736;DHT22;4404;49.308;12.178;2022-12-29T05:06:44;6.60;99.90
8736;DHT22;4404;49.308;12.178;2022-12-29T05:12:46;6.50;99.90
8736;DHT22;4404;49.308;12.178;2022-12-29T05:18:50;6.60;99.90
8736;DHT22;4404;49.308;12.178;2022-12-29T05:24:52;6.60;99.90
8736;DHT22;4404;49.308;12.178;2022-12-29T05:30:54;6.50;99.90
8736;DHT22;4404;49.308;12.178;2022-12-29T05:36:57;6.50;99.90
8736;DHT22;4404;49.308;12.178;2022-12-29T05:42:59;6.50;99.90
8736;DHT22;4404;49.308;12.178;2022-12-29T05:49:01;6.50;99.90
8736;DHT22;4404;49.308;12.178;2022-12-29T05:55:06;6.50;99.90
8736;DHT22;4404;49.308;12.178;2022-12-29T06:01:08;6.50;99.90
8736;DHT22;4404;49.308;12.178;2022-12-29T06:07:10;6.50;99.90
8736;DHT22;4404;49.308;12.178;2022-12-29T06:13:14;6.50;99.90
8736;DHT22;4404;49.308;12.178;2022-12-29T06:19:16;6.50;99.90
8736;DHT22;4404;49.308;12.178;2022-12-29T06:25:18;6.50;99.90
8736;DHT22;4404;49.308;12.178;2022-12-29T06:31:22;6.50;99.90
8736;DHT22;4404;49.308;12.178;2022-12-29T06:37:24;6.40;99.90
8736;DHT22;4404;49.308;12.178;2022-12-29T06:43:26;6.50;99.90
8736;DHT22;4404;49.308;12.178;2022-12-29T06:49:30;6.40;99.90
8736;DHT22;4404;49.308;12.178;2022-12-29T06:55:32;6.40;99.90
8736;DHT22;4404;49.308;12.178;2022-12-29T07:01:34;6.30;99.90
8736;DHT22;4404;49.308;12.178;2022-12-29T07:07:37;6.30;99.90
8736;DHT22;4404;49.308;12.178;2022-12-29T07:13:39;6.30;99.90
8736;DHT22;4404;49.308;12.178;2022-12-29T07:19:41;6.30;99.90
8736;DHT22;4404;49.308;12.178;2022-12-29T07:25:46;6.30;99.90
8736;DHT22;4404;49.308;12.178;2022-12-29T07:31:48;6.30;99.90
8736;DHT22;4404;49.308;12.178;2022-12-29T07:37:50;6.30;99.90
8736;DHT22;4404;49.308;12.178;2022-12-29T07:43:53;6.30;99.90
8736;DHT22;4404;49.308;12.178;2022-12-29T07:49:55;6.30;99.90
8736;DHT22;4404;49.308;12.178;2022-12-29T07:55:57;6.20;99.90
8736;DHT22;4404;49.308;12.178;2022-12-29T08:02:01;6.30;99.90
8736;DHT22;4404;49.308;12.178;2022-12-29T08:08:03;6.30;99.90
8736;DHT22;4404;49.308;12.178;2022-12-29T08:14:05;6.30;99.90
8736;DHT22;4404;49.308;12.178;2022-12-29T08:20:09;6.40;99.90
8736;DHT22;4404;49.308;12.178;2022-12-29T08:26:11;6.40;99.90
8736;DHT22;4404;49.308;12.178;2022-12-29T08:32:14;6.40;99.90
8736;DHT22;4404;49.308;12.178;2022-12-29T08:38:17;6.60;99.90
8736;DHT22;4404;49.308;12.178;2022-12-29T08:44:19;6.60;99.90
8736;DHT22;4404;49.308;12.178;2022-12-29T08:50:21;6.50;99.90
8736;DHT22;4404;49.308;12.178;2022-12-29T08:56:25;6.60;99.90
8736;DHT22;4404;49.308;12.178;2022-12-29T09:02:27;6.70;99.90
8736;DHT22;4404;49.308;12.178;2022-12-29T09:08:29;6.70;99.90
8736;DHT22;4404;49.308;12.178;2022-12-29T09:14:32;6.70;99.90
8736;DHT22;4404;49.308;12.178;2022-12-29T09:20:35;6.80;99.90
8736;DHT22;4404;49.308;12.178;2022-12-29T09:26:37;6.80;99.90
8736;DHT22;4404;49.308;12.178;2022-12-29T09:32:40;7.00;99.90
8736;DHT22;4404;49.308;12.178;2022-12-29T09:38:43;7.10;99.90
8736;DHT22;4404;49.308;12.178;2022-12-29T09:44:52;7.20;99.90
8736;DHT22;4404;49.308;12.178;2022-12-29T09:51:02;7.30;99.90
8736;DHT22;4404;49.308;12.178;2022-12-29T09:57:16;7.30;99.90
8736;DHT22;4404;49.308;12.178;2022-12-29T10:03:24;7.50;99.90
8736;DHT22;4404;49.308;12.178;2022-12-29T10:09:37;7.60;99.90
8736;DHT22;4404;49.308;12.178;2022-12-29T10:15:54;7.70;99.90
8736;DHT22;4404;49.308;12.178;2022-12-29T10:22:09;7.80;99.90
8736;DHT22;4404;49.308;12.178;2022-12-29T10:28:20;8.00;99.90
8736;DHT22;4404;49.308;12.178;2022-12-29T10:34:26;8.00;99.90
8736;DHT22;4404;49.308;12.178;2022-12-29T10:40:33;8.00;99.90
8736;DHT22;4404;49.308;12.178;2022-12-29T10:46:39;8.10;99.90
8736;DHT22;4404;49.308;12.178;2022-12-29T10:52:42;8.10;99.90
8736;DHT22;4404;49.308;12.178;2022-12-29T10:58:46;8.10;99.90
8736;DHT22;4404;49.308;12.178;2022-12-29T11:04:57;8.20;99.90
8736;DHT22;4404;49.308;12.178;2022-12-29T11:11:05;8.20;99.90
8736;DHT22;4404;49.308;12.178;2022-12-29T11:17:15;8.20;99.90
8736;DHT22;4404;49.308;12.178;2022-12-29T11:23:25;8.30;99.90
8736;DHT22;4404;49.308;12.178;2022-12-29T11:29:37;8.40;99.90
8736;DHT22;4404;49.308;12.178;2022-12-29T11:35:43;8.50;99.90
8736;DHT22;4404;49.308;12.178;2022-12-29T11:41:51;8.50;99.90
8736;DHT22;4404;49.308;12.178;2022-12-29T11:47:56;8.60;99.90
8736;DHT22;4404;49.308;12.178;2022-12-29T11:54:01;8.80;99.90
8736;DHT22;4404;49.308;12.178;2022-12-29T12:00:15;8.90;99.90
8736;DHT22;4404;49.308;12.178;2022-12-29T12:06:20;9.00;99.90
8736;DHT22;4404;49.308;12.178;2022-12-29T12:12:28;9.10;99.90
8736;DHT22;4404;49.308;12.178;2022-12-29T12:18:40;9.20;99.90
8736;DHT22;4404;49.308;12.178;2022-12-29T12:24:48;9.40;99.90
8736;DHT22;4404;49.308;12.178;2022-12-29T12:30:55;9.60;99.90
8736;DHT22;4404;49.308;12.178;2022-12-29T12:37:11;9.70;99.90
8736;DHT22;4404;49.308;12.178;2022-12-29T12:43:36;9.80;99.90
8736;DHT22;4404;49.308;12.178;2022-12-29T12:49:59;9.70;99.90
8736;DHT22;4404;49.308;12.178;2022-12-29T12:56:28;9.80;99.90
8736;DHT22;4404;49.308;12.178;2022-12-29T13:02:49;9.80;99.90
8736;DHT22;4404;49.308;12.178;2022-12-29T13:09:27;10.30;99.90
8736;DHT22;4404;49.308;12.178;2022-12-29T13:15:43;9.90;99.90
8736;DHT22;4404;49.308;12.178;2022-12-29T13:21:57;9.80;99.90
8736;DHT22;4404;49.308;12.178;2022-12-29T13:28:09;10.10;99.90
8736;DHT22;4404;49.308;12.178;2022-12-29T13:34:24;9.90;99.90
8736;DHT22;4404;49.308;12.178;2022-12-29T13:40:36;10.00;99.90
8736;DHT22;4404;49.308;12.178;2022-12-29T13:46:43;10.00;99.90
8736;DHT22;4404;49.308;12.178;2022-12-29T13:52:56;10.00;99.90
8736;DHT22;4404;49.308;12.178;2022-12-29T13:59:05;10.20;99.90
8736;DHT22;4404;49.308;12.178;2022-12-29T14:05:28;10.00;99.90
8736;DHT22;4404;49.308;12.178;2022-12-29T14:11:35;9.90;99.90
8736;DHT22;4404;49.308;12.178;2022-12-29T14:17:40;9.90;99.90
8736;DHT22;4404;49.308;12.178;2022-12-29T14:23:43;9.90;99.90
8736;DHT22;4404;49.308;12.178;2022-12-29T14:29:49;10.00;99.90
8736;DHT22;4404;49.308;12.178;2022-12-29T14:35:51;10.00;99.90
8736;DHT22;4404;49.308;12.178;2022-12-29T14:41:59;9.90;99.90
8736;DHT22;4404;49.308;12.178;2022-12-29T14:54:52;9.90;99.90
8736;DHT22;4404;49.308;12.178;2022-12-29T15:00:56;9.90;99.90
8736;DHT22;4404;49.308;12.178;2022-12-29T15:07:01;9.90;99.90
8736;DHT22;4404;49.308;12.178;2022-12-29T15:13:12;9.90;99.90
8736;DHT22;4404;49.308;12.178;2022-12-29T15:19:21;9.90;99.90
8736;DHT22;4404;49.308;12.178;2022-12-29T15:25:25;9.90;99.90
8736;DHT22;4404;49.308;12.178;2022-12-29T15:31:28;9.90;99.90
8736;DHT22;4404;49.308;12.178;2022-12-29T15:37:33;9.90;99.90
8736;DHT22;4404;49.308;12.178;2022-12-29T15:43:45;10.40;99.90
8736;DHT22;4404;49.308;12.178;2022-12-29T15:49:58;9.80;99.90
8736;DHT22;4404;49.308;12.178;2022-12-29T15:56:07;9.90;99.90
8736;DHT22;4404;49.308;12.178;2022-12-29T16:02:11;9.90;99.90
8736;DHT22;4404;49.308;12.178;2022-12-29T16:08:24;9.90;99.90
8736;DHT22;4404;49.308;12.178;2022-12-29T16:14:41;9.90;99.90
8736;DHT22;4404;49.308;12.178;2022-12-29T16:20:46;9.90;99.90
8736;DHT22;4404;49.308;12.178;2022-12-29T16:26:50;9.80;99.90
8736;DHT22;4404;49.308;12.178;2022-12-29T16:32:57;9.90;99.90
8736;DHT22;4404;49.308;12.178;2022-12-29T16:39:21;9.80;99.90
8736;DHT22;4404;49.308;12.178;2022-12-29T16:52:25;9.80;99.90
8736;DHT22;4404;49.308;12.178;2022-12-29T16:58:32;9.80;99.90
8736;DHT22;4404;49.308;12.178;2022-12-29T17:04:35;9.80;99.90
8736;DHT22;4404;49.308;12.178;2022-12-29T17:10:38;9.80;99.90
8736;DHT22;4404;49.308;12.178;2022-12-29T17:16:56;9.80;99.90
8736;DHT22;4404;49.308;12.178;2022-12-29T17:23:01;9.80;99.90
8736;DHT22;4404;49.308;12.178;2022-12-29T17:29:03;9.70;99.90
8736;DHT22;4404;49.308;12.178;2022-12-29T17:35:12;9.80;99.90
8736;DHT22;4404;49.308;12.178;2022-12-29T17:41:15;9.70;99.90
8736;DHT22;4404;49.308;12.178;2022-12-29T17:47:18;9.80;99.90
8736;DHT22;4404;49.308;12.178;2022-12-29T17:53:25;9.80;99.90
8736;DHT22;4404;49.308;12.178;2022-12-29T17:59:29;9.80;99.90
8736;DHT22;4404;49.308;12.178;2022-12-29T18:05:31;9.80;99.90
8736;DHT22;4404;49.308;12.178;2022-12-29T18:11:35;9.80;99.90
8736;DHT22;4404;49.308;12.178;2022-12-29T18:17:38;9.80;99.90
8736;DHT22;4404;49.308;12.178;2022-12-29T18:23:40;9.70;99.90
8736;DHT22;4404;49.308;12.178;2022-12-29T18:29:44;9.80;99.90
8736;DHT22;4404;49.308;12.178;2022-12-29T18:35:50;9.80;99.90
8736;DHT22;4404;49.308;12.178;2022-12-29T18:41:53;9.80;99.90
8736;DHT22;4404;49.308;12.178;2022-12-29T18:47:57;9.90;99.90
8736;DHT22;4404;49.308;12.178;2022-12-29T18:53:59;9.90;99.90
8736;DHT22;4404;49.308;12.178;2022-12-29T19:00:03;9.90;99.90
8736;DHT22;4404;49.308;12.178;2022-12-29T19:06:07;10.00;99.90
8736;DHT22;4404;49.308;12.178;2022-12-29T19:12:12;9.90;99.90
8736;DHT22;4404;49.308;12.178;2022-12-29T19:18:18;10.00;99.90
8736;DHT22;4404;49.308;12.178;2022-12-29T19:24:23;9.80;99.90
8736;DHT22;4404;49.308;12.178;2022-12-29T19:30:25;9.80;99.90
8736;DHT22;4404;49.308;12.178;2022-12-29T19:36:27;9.80;99.90
8736;DHT22;4404;49.308;12.178;2022-12-29T19:42:30;9.80;99.90
8736;DHT22;4404;49.308;12.178;2022-12-29T19:48:32;9.80;99.90
8736;DHT22;4404;49.308;12.178;2022-12-29T19:54:34;9.80;99.90
8736;DHT22;4404;49.308;12.178;2022-12-29T20:00:39;9.80;99.90
8736;DHT22;4404;49.308;12.178;2022-12-29T20:06:42;9.70;99.90
8736;DHT22;4404;49.308;12.178;2022-12-29T20:12:44;9.70;99.90
8736;DHT22;4404;49.308;12.178;2022-12-29T20:18:47;9.60;99.90
8736;DHT22;4404;49.308;12.178;2022-12-29T20:24:50;9.60;99.90
8736;DHT22;4404;49.308;12.178;2022-12-29T20:30:56;9.60;99.90
8736;DHT22;4404;49.308;12.178;2022-12-29T20:37:01;9.60;99.90
8736;DHT22;4404;49.308;12.178;2022-12-29T20:43:03;9.60;99.90
8736;DHT22;4404;49.308;12.178;2022-12-29T20:49:05;9.60;99.90
8736;DHT22;4404;49.308;12.178;2022-12-29T20:55:09;9.60;99.90
8736;DHT22;4404;49.308;12.178;2022-12-29T21:01:14;9.60;99.90
8736;DHT22;4404;49.308;12.178;2022-12-29T21:07:17;9.60;99.90
8736;DHT22;4404;49.308;12.178;2022-12-29T21:13:20;9.60;99.90
8736;DHT22;4404;49.308;12.178;2022-12-29T21:19:23;9.60;99.90
8736;DHT22;4404;49.308;12.178;2022-12-29T21:25:25;9.60;99.90
8736;DHT22;4404;49.308;12.178;2022-12-29T21:31:37;9.70;99.90
8736;DHT22;4404;49.308;12.178;2022-12-29T21:37:39;9.90;99.90
8736;DHT22;4404;49.308;12.178;2022-12-29T21:43:42;9.70;99.90
8736;DHT22;4404;49.308;12.178;2022-12-29T21:50:06;9.70;99.90
8736;DHT22;4404;49.308;12.178;2022-12-29T21:56:11;9.70;99.90
8736;DHT22;4404;49.308;12.178;2022-12-29T22:02:19;9.60;99.90
8736;DHT22;4404;49.308;12.178;2022-12-29T22:08:41;9.90;99.90
8736;DHT22;4404;49.308;12.178;2022-12-29T22:15:00;9.70;99.90
8736;DHT22;4404;49.308;12.178;2022-12-29T22:21:03;9.70;99.90
8736;DHT22;4404;49.308;12.178;2022-12-29T22:27:08;9.70;99.90
8736;DHT22;4404;49.308;12.178;2022-12-29T22:33:10;9.70;99.90
8736;DHT22;4404;49.308;12.178;2022-12-29T22:39:12;9.60;99.90
8736;DHT22;4404;49.308;12.178;2022-12-29T22:45:15;9.60;99.90
8736;DHT22;4404;49.308;12.178;2022-12-29T22:51:17;9.60;99.90
8736;DHT22;4404;49.308;12.178;2022-12-29T22:57:19;9.60;99.90
8736;DHT22;4404;49.308;12.178;2022-12-29T23:03:22;9.50;99.90
8736;DHT22;4404;49.308;12.178;2022-12-29T23:09:24;9.50;99.90
8736;DHT22;4404;49.308;12.178;2022-12-29T23:15:26;9.50;99.90
8736;DHT22;4404;49.308;12.178;2022-12-29T23:21:30;9.50;99.90
8736;DHT22;4404;49.308;12.178;2022-12-29T23:27:32;9.40;99.90
8736;DHT22;4404;49.308;12.178;2022-12-29T23:33:34;9.40;99.90
8736;DHT22;4404;49.308;12.178;2022-12-29T23:39:37;9.40;99.90
8736;DHT22;4404;49.308;12.178;2022-12-29T23:45:39;9.60;99.90
8736;DHT22;4404;49.308;12.178;2022-12-29T23:51:41;9.60;99.90
8736;DHT22;4404;49.308;12.178;2022-12-29T23:57:44;9.20;99.90
